Time;durP1;ratioP1;P1;durP2;ratioP2;P2;SDS_P1;SDS_P2;PMS_P1;PMS_P2;Temp;Humidity;BMP_temperature;BMP_pressure;BME280_temperature;BME280_humidity;BME280_pressure;Samples;Min_cycle;Max_cycle;Signal;HPM_P1;HPM_P2
2022/12/11 00:00:04;;;;;;;16.00;10.25;;;;;;;;;;5100353;28;20024;-74
2022/12/11 00:02:50;;;;;;;17.50;10.70;;;;;;;;;;5095788;28;20059;-74
2022/12/11 00:05:38;;;;;;;17.20;9.80;;;;;;;;;;5093928;28;20472;-73
2022/12/11 00:08:23;;;;;;;17.25;9.07;;;;;;;;;;5094929;28;20016;-73
2022/12/11 00:11:12;;;;;;;16.08;8.80;;;;;;;;;;5095224;28;20441;-72
2022/12/11 00:13:58;;;;;;;16.10;8.25;;;;;;;;;;5094620;28;20024;-73
2022/12/11 00:16:46;;;;;;;12.05;7.90;;;;;;;;;;5094839;28;20031;-76
2022/12/11 00:19:31;;;;;;;15.15;7.60;;;;;;;;;;5079549;28;20012;-76
2022/12/11 00:22:17;;;;;;;12.05;6.65;;;;;;;;;;5093995;28;20028;-75
2022/12/11 00:25:03;;;;;;;12.40;6.43;;;;;;;;;;5094414;28;20028;-74
2022/12/11 00:27:48;;;;;;;10.27;6.13;;;;;;;;;;5080148;28;20027;-75
2022/12/11 00:30:37;;;;;;;14.98;7.05;;;;;;;;;;5096148;28;20103;-76
2022/12/11 00:33:25;;;;;;;17.15;6.63;;;;;;;;;;5093641;28;20023;-75
2022/12/11 00:36:12;;;;;;;10.73;6.40;;;;;;;;;;5094340;28;20400;-75
2022/12/11 00:38:58;;;;;;;14.60;6.22;;;;;;;;;;5093897;28;20044;-74
2022/12/11 00:41:43;;;;;;;12.10;6.40;;;;;;;;;;5094161;28;20023;-76
2022/12/11 00:44:29;;;;;;;11.63;6.43;;;;;;;;;;5093996;28;20418;-75
2022/12/11 00:47:14;;;;;;;10.52;6.57;;;;;;;;;;5094262;28;20034;-75
2022/12/11 00:50:00;;;;;;;13.93;6.57;;;;;;;;;;5094432;28;20070;-75
2022/12/11 00:52:46;;;;;;;11.32;6.95;;;;;;;;;;5094098;28;20107;-75
2022/12/11 00:55:35;;;;;;;14.90;6.93;;;;;;;;;;5093381;28;20016;-76
2022/12/11 00:58:21;;;;;;;12.90;6.75;;;;;;;;;;5093296;28;20020;-76
2022/12/11 01:01:12;;;;;;;12.63;6.80;;;;;;;;;;5094118;28;20040;-76
2022/12/11 01:03:57;;;;;;;13.05;5.97;;;;;;;;;;5078824;28;20016;-76
2022/12/11 01:06:43;;;;;;;11.70;6.28;;;;;;;;;;5078878;28;20465;-75
2022/12/11 01:12:32;;;;;;;8.63;6.22;;;;;;;;;;5093634;28;20028;-76
2022/12/11 01:15:19;;;;;;;12.32;6.20;;;;;;;;;;5094026;28;20035;-74
2022/12/11 01:18:05;;;;;;;15.38;6.97;;;;;;;;;;5078261;28;20433;-75
2022/12/11 01:20:50;;;;;;;10.75;6.43;;;;;;;;;;5093074;28;20472;-74
2022/12/11 01:23:36;;;;;;;12.80;6.78;;;;;;;;;;5078841;28;20021;-75
2022/12/11 01:26:22;;;;;;;16.65;6.53;;;;;;;;;;5098309;28;20418;-75
2022/12/11 01:29:07;;;;;;;11.77;6.30;;;;;;;;;;5097108;28;20024;-74
2022/12/11 01:31:53;;;;;;;10.80;6.47;;;;;;;;;;5097796;28;20056;-75
2022/12/11 01:34:39;;;;;;;13.45;7.13;;;;;;;;;;5097476;28;20012;-74
2022/12/11 01:37:24;;;;;;;9.80;6.25;;;;;;;;;;5098276;28;20429;-74
2022/12/11 01:40:13;;;;;;;17.05;6.50;;;;;;;;;;5097940;28;20043;-74
2022/12/11 01:42:59;;;;;;;19.08;7.13;;;;;;;;;;5082969;28;20024;-74
2022/12/11 01:45:46;;;;;;;13.30;6.53;;;;;;;;;;5097434;28;20454;-74
2022/12/11 01:48:32;;;;;;;10.75;6.13;;;;;;;;;;5097092;28;20038;-75
2022/12/11 01:51:17;;;;;;;13.18;6.22;;;;;;;;;;5098000;28;20369;-75
2022/12/11 01:54:06;;;;;;;13.90;6.22;;;;;;;;;;5097661;28;20020;-75
2022/12/11 01:56:53;;;;;;;11.98;6.30;;;;;;;;;;5097961;28;20024;-74
2022/12/11 01:59:41;;;;;;;11.98;6.50;;;;;;;;;;5097080;28;20449;-75
2022/12/11 02:02:28;;;;;;;12.15;7.18;;;;;;;;;;5096644;28;20067;-75
2022/12/11 02:05:14;;;;;;;16.95;7.13;;;;;;;;;;5082226;28;20403;-74
2022/12/11 02:08:01;;;;;;;17.52;6.90;;;;;;;;;;5096863;28;20031;-75
2022/12/11 02:11:05;;;;;;;18.15;7.53;;;;;;;;;;5097011;28;20506;-74
2022/12/11 02:14:02;;;;;;;14.90;7.72;;;;;;;;;;5096908;28;20032;-74
2022/12/11 02:16:52;;;;;;;19.10;8.60;;;;;;;;;;5081639;28;20107;-74
2022/12/11 02:19:37;;;;;;;16.95;8.63;;;;;;;;;;5096508;28;20020;-75
2022/12/11 02:22:41;;;;;;;17.77;8.43;;;;;;;;;;5096884;28;20035;-75
2022/12/11 02:25:45;;;;;;;18.00;9.15;;;;;;;;;;5096660;28;20032;-74
2022/12/11 02:28:46;;;;;;;20.17;9.18;;;;;;;;;;5097193;28;20016;-74
2022/12/11 02:31:40;;;;;;;20.88;9.73;;;;;;;;;;5095677;28;20051;-74
2022/12/11 02:34:33;;;;;;;15.50;9.68;;;;;;;;;;5096675;28;20020;-74
2022/12/11 02:37:20;;;;;;;20.25;9.05;;;;;;;;;;5095409;28;20019;-74
2022/12/11 02:40:07;;;;;;;16.95;8.38;;;;;;;;;;5096668;28;20031;-75
2022/12/11 02:42:53;;;;;;;20.48;9.10;;;;;;;;;;5096337;28;20361;-75
2022/12/11 02:45:40;;;;;;;25.80;9.57;;;;;;;;;;5096012;28;20032;-75
2022/12/11 02:48:26;;;;;;;25.65;9.60;;;;;;;;;;5096765;28;20102;-74
2022/12/11 02:51:14;;;;;;;19.63;8.55;;;;;;;;;;5095862;28;20024;-75
2022/12/11 02:54:01;;;;;;;20.13;8.77;;;;;;;;;;5096214;28;20438;-74
2022/12/11 02:56:49;;;;;;;17.15;8.43;;;;;;;;;;5081092;28;20426;-75
2022/12/11 02:59:35;;;;;;;22.08;8.57;;;;;;;;;;5095570;28;20028;-76
2022/12/11 03:02:21;;;;;;;19.70;8.10;;;;;;;;;;5095474;28;20103;-75
2022/12/11 03:05:07;;;;;;;31.38;8.43;;;;;;;;;;5096262;28;20020;-75
2022/12/11 03:07:53;;;;;;;24.00;7.78;;;;;;;;;;5081070;28;20106;-75
2022/12/11 03:10:38;;;;;;;19.92;7.30;;;;;;;;;;5080375;28;20024;-75
2022/12/11 03:13:24;;;;;;;21.55;7.75;;;;;;;;;;5080569;28;20024;-74
2022/12/11 03:16:12;;;;;;;20.10;7.70;;;;;;;;;;5095885;28;20442;-74
2022/12/11 03:19:11;;;;;;;19.00;7.43;;;;;;;;;;5096038;28;20012;-75
2022/12/11 03:22:02;;;;;;;23.98;7.38;;;;;;;;;;5095215;28;20036;-73
2022/12/11 03:24:58;;;;;;;17.35;6.20;;;;;;;;;;5095739;28;20012;-75
2022/12/11 03:27:49;;;;;;;23.58;7.20;;;;;;;;;;5095277;28;20450;-74
2022/12/11 03:30:35;;;;;;;16.25;6.05;;;;;;;;;;5080617;28;20120;-74
2022/12/11 03:33:27;;;;;;;18.55;5.78;;;;;;;;;;5080508;28;20061;-72
2022/12/11 03:36:16;;;;;;;17.15;5.75;;;;;;;;;;5095157;28;20016;-74
2022/12/11 03:39:08;;;;;;;15.45;5.50;;;;;;;;;;5095011;28;20066;-74
2022/12/11 03:41:54;;;;;;;21.48;5.85;;;;;;;;;;5095298;28;20502;-74
2022/12/11 03:44:41;;;;;;;14.30;5.45;;;;;;;;;;5095291;28;20077;-74
2022/12/11 03:47:27;;;;;;;11.32;4.78;;;;;;;;;;5094983;28;20454;-74
2022/12/11 03:50:15;;;;;;;14.13;5.40;;;;;;;;;;5095664;28;20456;-74
2022/12/11 03:53:01;;;;;;;14.07;5.07;;;;;;;;;;5095358;28;20088;-74
2022/12/11 03:55:48;;;;;;;17.73;5.20;;;;;;;;;;5094918;28;20016;-75
2022/12/11 03:58:33;;;;;;;16.92;4.82;;;;;;;;;;5095100;28;20390;-76
2022/12/11 04:01:19;;;;;;;12.65;4.63;;;;;;;;;;5078181;28;20127;-76
2022/12/11 04:04:04;;;;;;;15.90;4.72;;;;;;;;;;5094077;28;20020;-75
2022/12/11 04:06:50;;;;;;;11.52;4.07;;;;;;;;;;5094139;28;20036;-75
2022/12/11 04:09:36;;;;;;;17.05;4.88;;;;;;;;;;5079555;28;20027;-74
2022/12/11 04:12:21;;;;;;;13.00;4.70;;;;;;;;;;5078947;28;20016;-74
2022/12/11 04:15:07;;;;;;;11.43;4.30;;;;;;;;;;5094054;28;20325;-75
2022/12/11 04:24:14;;;;;;;11.43;3.38;;;;;;;;;;5094299;28;20028;-75
2022/12/11 04:27:00;;;;;;;8.90;3.78;;;;;;;;;;5093757;28;20462;-74
2022/12/11 04:29:45;;;;;;;10.57;3.95;;;;;;;;;;5093556;28;20031;-75
2022/12/11 04:32:31;;;;;;;12.10;3.90;;;;;;;;;;5079225;28;20013;-74
2022/12/11 04:35:17;;;;;;;10.48;3.75;;;;;;;;;;5093634;28;20012;-74
2022/12/11 04:38:03;;;;;;;11.15;3.72;;;;;;;;;;5093655;28;20330;-75
2022/12/11 04:40:48;;;;;;;11.38;3.45;;;;;;;;;;5093432;28;20107;-73
2022/12/11 04:43:34;;;;;;;11.25;3.55;;;;;;;;;;5078451;28;20027;-75
2022/12/11 04:46:21;;;;;;;11.07;3.40;;;;;;;;;;5093275;28;20055;-74
2022/12/11 04:49:07;;;;;;;11.07;3.70;;;;;;;;;;5078721;28;20028;-76
2022/12/11 04:51:52;;;;;;;13.02;3.13;;;;;;;;;;5093280;28;20453;-75
2022/12/11 04:54:38;;;;;;;9.57;3.30;;;;;;;;;;5092923;28;20099;-75
2022/12/11 04:57:24;;;;;;;13.10;3.53;;;;;;;;;;5093263;28;20020;-75
2022/12/11 05:00:10;;;;;;;9.68;3.17;;;;;;;;;;5092250;28;20016;-74
2022/12/11 05:02:56;;;;;;;8.52;2.88;;;;;;;;;;5092757;28;20094;-73
2022/12/11 05:05:49;;;;;;;7.35;2.90;;;;;;;;;;5093356;28;20024;-75
2022/12/11 05:08:36;;;;;;;13.63;3.13;;;;;;;;;;5093480;28;20024;-75
2022/12/11 05:11:22;;;;;;;10.65;3.10;;;;;;;;;;5093531;28;20034;-75
2022/12/11 05:14:08;;;;;;;12.10;3.33;;;;;;;;;;5093826;28;20021;-75
2022/12/11 05:16:53;;;;;;;9.40;2.53;;;;;;;;;;5092499;28;20099;-74
2022/12/11 05:19:39;;;;;;;8.70;2.95;;;;;;;;;;5089979;28;20028;-74
2022/12/11 05:22:24;;;;;;;9.60;2.50;;;;;;;;;;5093458;28;20035;-74
2022/12/11 05:25:10;;;;;;;14.82;3.63;;;;;;;;;;5093772;28;20061;-75
2022/12/11 05:27:56;;;;;;;10.27;3.40;;;;;;;;;;5093964;28;20095;-74
2022/12/11 05:30:41;;;;;;;7.95;2.90;;;;;;;;;;5078537;28;20404;-73
2022/12/11 05:33:27;;;;;;;8.57;3.38;;;;;;;;;;5094130;28;20111;-75
2022/12/11 05:36:31;;;;;;;9.93;3.08;;;;;;;;;;5093170;28;20035;-75
2022/12/11 05:39:17;;;;;;;11.93;3.67;;;;;;;;;;5093398;28;20024;-74
2022/12/11 05:42:03;;;;;;;8.50;3.08;;;;;;;;;;5093194;28;20446;-74
2022/12/11 05:44:48;;;;;;;12.38;3.65;;;;;;;;;;5078391;28;20055;-74
2022/12/11 05:47:34;;;;;;;9.70;3.50;;;;;;;;;;5094253;28;20420;-74
2022/12/11 05:50:20;;;;;;;10.02;3.22;;;;;;;;;;5094074;28;20119;-74
2022/12/11 05:53:06;;;;;;;11.30;3.90;;;;;;;;;;5092863;28;20024;-74
2022/12/11 05:55:51;;;;;;;10.50;4.18;;;;;;;;;;5092751;28;20012;-74
2022/12/11 05:58:37;;;;;;;10.90;4.20;;;;;;;;;;5092781;28;20044;-75
2022/12/11 06:01:24;;;;;;;10.30;4.15;;;;;;;;;;5092542;28;20052;-75
2022/12/11 06:04:10;;;;;;;11.05;3.88;;;;;;;;;;5093368;28;20036;-74
2022/12/11 06:06:56;;;;;;;11.10;4.57;;;;;;;;;;5093010;28;20028;-74
2022/12/11 06:09:41;;;;;;;14.98;4.07;;;;;;;;;;5092830;28;20055;-75
2022/12/11 06:12:27;;;;;;;9.63;4.15;;;;;;;;;;5095460;28;20361;-74
2022/12/11 06:15:12;;;;;;;15.00;4.20;;;;;;;;;;5095981;28;20432;-75
2022/12/11 06:17:58;;;;;;;9.27;3.50;;;;;;;;;;5097637;28;20436;-75
2022/12/11 06:20:44;;;;;;;11.60;4.00;;;;;;;;;;5099582;28;20465;-75
2022/12/11 06:23:29;;;;;;;11.05;3.40;;;;;;;;;;5085743;28;20023;-74
2022/12/11 06:26:15;;;;;;;11.45;4.18;;;;;;;;;;5116406;28;20112;-74
2022/12/11 06:29:01;;;;;;;13.75;3.70;;;;;;;;;;5094728;28;20022;-72
2022/12/11 06:31:47;;;;;;;9.15;3.10;;;;;;;;;;5105378;28;20031;-74
2022/12/11 06:34:32;;;;;;;11.82;3.38;;;;;;;;;;5098007;28;20030;-74
2022/12/11 06:37:18;;;;;;;9.65;3.53;;;;;;;;;;5099160;28;20012;-74
2022/12/11 06:40:04;;;;;;;9.13;3.63;;;;;;;;;;5089622;28;20388;-75
2022/12/11 06:42:49;;;;;;;14.88;3.85;;;;;;;;;;5096587;28;20020;-75
2022/12/11 06:45:38;;;;;;;14.55;4.07;;;;;;;;;;5096861;28;20103;-74
2022/12/11 06:48:24;;;;;;;14.07;4.28;;;;;;;;;;5096055;28;20020;-75
2022/12/11 06:51:17;;;;;;;8.95;4.32;;;;;;;;;;5095684;28;20020;-74
2022/12/11 06:54:02;;;;;;;15.15;4.30;;;;;;;;;;5096173;28;20410;-74
2022/12/11 06:56:48;;;;;;;11.63;3.75;;;;;;;;;;5096145;28;20046;-75
2022/12/11 06:59:33;;;;;;;9.65;3.53;;;;;;;;;;5096594;28;20333;-75
2022/12/11 07:02:19;;;;;;;14.45;4.07;;;;;;;;;;5095675;28;20438;-75
2022/12/11 07:05:05;;;;;;;13.48;3.85;;;;;;;;;;5080770;28;20024;-75
2022/12/11 07:07:52;;;;;;;13.48;4.15;;;;;;;;;;5096001;28;20023;-74
2022/12/11 07:10:38;;;;;;;12.95;4.55;;;;;;;;;;5083298;28;20085;-74
2022/12/11 07:13:23;;;;;;;11.85;3.95;;;;;;;;;;5089202;28;20038;-73
2022/12/11 07:16:11;;;;;;;10.32;3.70;;;;;;;;;;5090910;28;20050;-75
2022/12/11 07:18:56;;;;;;;10.80;4.22;;;;;;;;;;5095380;28;20397;-75
2022/12/11 07:21:42;;;;;;;12.60;4.82;;;;;;;;;;5094589;28;20024;-75
2022/12/11 07:24:28;;;;;;;14.43;4.28;;;;;;;;;;5080336;28;20091;-74
2022/12/11 07:27:13;;;;;;;14.65;4.43;;;;;;;;;;5095542;28;20027;-74
2022/12/11 07:29:59;;;;;;;14.35;4.47;;;;;;;;;;5095191;28;20041;-75
2022/12/11 07:32:44;;;;;;;13.80;4.47;;;;;;;;;;5094138;28;20054;-75
2022/12/11 07:35:30;;;;;;;15.15;4.35;;;;;;;;;;5080378;28;20101;-75
2022/12/11 07:38:16;;;;;;;11.40;4.20;;;;;;;;;;5095791;28;20027;-74
2022/12/11 07:41:02;;;;;;;12.43;4.18;;;;;;;;;;5080383;28;20081;-75
2022/12/11 07:43:48;;;;;;;10.85;3.60;;;;;;;;;;5095018;28;20411;-74
2022/12/11 07:46:34;;;;;;;17.15;4.07;;;;;;;;;;5095090;28;20020;-75
2022/12/11 07:49:19;;;;;;;9.43;3.78;;;;;;;;;;5080024;28;20262;-75
2022/12/11 07:52:05;;;;;;;12.35;4.13;;;;;;;;;;5094955;28;20024;-75
2022/12/11 07:54:51;;;;;;;11.10;4.78;;;;;;;;;;5094514;28;20016;-76
2022/12/11 07:57:36;;;;;;;14.68;4.82;;;;;;;;;;5095774;28;20047;-75
2022/12/11 08:00:22;;;;;;;12.48;4.68;;;;;;;;;;5094589;28;20031;-74
2022/12/11 08:03:07;;;;;;;12.02;4.20;;;;;;;;;;5079790;28;20047;-75
2022/12/11 08:05:53;;;;;;;8.27;4.00;;;;;;;;;;5080323;28;20454;-74
2022/12/11 08:08:40;;;;;;;14.40;4.63;;;;;;;;;;5094481;28;20024;-74
2022/12/11 08:11:26;;;;;;;8.77;3.95;;;;;;;;;;5080288;28;20376;-75
2022/12/11 08:14:11;;;;;;;11.13;4.45;;;;;;;;;;5094803;28;20031;-74
2022/12/11 08:16:59;;;;;;;10.43;4.35;;;;;;;;;;5095131;28;20016;-74
2022/12/11 08:19:44;;;;;;;9.27;4.13;;;;;;;;;;5094560;28;20024;-74
2022/12/11 08:22:30;;;;;;;9.63;4.00;;;;;;;;;;5094381;28;20035;-75
2022/12/11 08:25:15;;;;;;;13.40;3.75;;;;;;;;;;5094058;28;20503;-75
2022/12/11 08:28:01;;;;;;;11.93;4.13;;;;;;;;;;5094635;28;20032;-73
2022/12/11 08:30:46;;;;;;;10.10;4.20;;;;;;;;;;5094874;28;20020;-74
2022/12/11 08:33:32;;;;;;;10.85;3.65;;;;;;;;;;5093583;28;20078;-74
2022/12/11 08:36:19;;;;;;;13.57;4.72;;;;;;;;;;5094289;28;20044;-76
2022/12/11 08:39:05;;;;;;;7.95;2.75;;;;;;;;;;5094193;28;20366;-74
2022/12/11 08:41:50;;;;;;;9.73;3.25;;;;;;;;;;5093880;28;20445;-74
2022/12/11 08:44:36;;;;;;;13.15;3.42;;;;;;;;;;5094532;28;20028;-74
2022/12/11 08:47:22;;;;;;;13.43;3.45;;;;;;;;;;5093888;28;20089;-75
2022/12/11 08:50:08;;;;;;;14.07;4.38;;;;;;;;;;5093687;28;20031;-74
2022/12/11 08:52:53;;;;;;;13.30;4.35;;;;;;;;;;5095043;28;20024;-74
2022/12/11 08:55:39;;;;;;;12.10;3.92;;;;;;;;;;5079536;28;20077;-74
2022/12/11 08:58:25;;;;;;;10.27;3.80;;;;;;;;;;5094317;28;20016;-75
2022/12/11 09:01:12;;;;;;;10.80;4.05;;;;;;;;;;5076527;28;20040;-75
2022/12/11 09:03:58;;;;;;;9.00;3.10;;;;;;;;;;5092853;28;20330;-74
2022/12/11 09:06:48;;;;;;;13.23;3.58;;;;;;;;;;5094639;28;20477;-75
2022/12/11 09:09:33;;;;;;;11.85;4.00;;;;;;;;;;5092714;28;20353;-75
2022/12/11 09:12:19;;;;;;;12.63;3.90;;;;;;;;;;5092555;28;20066;-75
2022/12/11 09:15:05;;;;;;;10.30;3.78;;;;;;;;;;5078475;28;20025;-74
2022/12/11 09:17:50;;;;;;;9.68;3.45;;;;;;;;;;5092798;28;20040;-75
2022/12/11 09:20:36;;;;;;;9.50;3.17;;;;;;;;;;5092653;28;20036;-75
2022/12/11 09:23:21;;;;;;;11.52;4.00;;;;;;;;;;5092717;28;20043;-75
2022/12/11 09:26:09;;;;;;;6.10;3.00;;;;;;;;;;5079079;28;20027;-76
2022/12/11 09:28:55;;;;;;;10.60;3.67;;;;;;;;;;5092372;28;20024;-73
2022/12/11 09:31:41;;;;;;;7.20;3.70;;;;;;;;;;5078484;28;20035;-75
2022/12/11 09:34:26;;;;;;;9.23;3.80;;;;;;;;;;5092212;28;20063;-75
2022/12/11 09:37:12;;;;;;;10.02;3.88;;;;;;;;;;5093652;28;20327;-74
2022/12/11 09:39:57;;;;;;;5.85;3.47;;;;;;;;;;5093322;28;20103;-73
2022/12/11 09:42:49;;;;;;;5.22;3.80;;;;;;;;;;5091695;28;20046;-74
2022/12/11 09:45:35;;;;;;;7.35;3.10;;;;;;;;;;5094377;28;20493;-75
2022/12/11 09:48:21;;;;;;;6.93;3.22;;;;;;;;;;5096646;28;20106;-74
2022/12/11 09:51:26;;;;;;;8.98;3.55;;;;;;;;;;5097417;28;20028;-75
2022/12/11 09:54:12;;;;;;;6.75;3.17;;;;;;;;;;5082183;28;20032;-76
2022/12/11 09:57:13;;;;;;;5.80;4.25;;;;;;;;;;5097372;28;20074;-74
2022/12/11 10:00:05;;;;;;;5.72;4.13;;;;;;;;;;5096934;28;20035;-75
2022/12/11 10:02:50;;;;;;;7.57;4.10;;;;;;;;;;5058149;28;20057;-74
2022/12/11 10:05:59;;;;;;;37.22;5.50;;;;;;;;;;5076801;28;20064;-75
2022/12/11 10:09:03;;;;;;;6.43;4.13;;;;;;;;;;5076894;28;20089;-75
2022/12/11 10:11:55;;;;;;;12.13;4.88;;;;;;;;;;5076368;28;20037;-76
2022/12/11 10:14:46;;;;;;;10.65;5.70;;;;;;;;;;5075947;28;20013;-76
2022/12/11 10:17:33;;;;;;;9.15;5.40;;;;;;;;;;5076990;28;20025;-75
2022/12/11 10:20:21;;;;;;;12.00;4.78;;;;;;;;;;5077441;28;20012;-76
2022/12/11 10:23:08;;;;;;;8.93;5.20;;;;;;;;;;5062246;28;20339;-74
2022/12/11 10:26:06;;;;;;;7.35;4.57;;;;;;;;;;5076765;28;20415;-75
2022/12/11 10:28:51;;;;;;;8.95;5.65;;;;;;;;;;5076159;28;20085;-75
2022/12/11 10:31:45;;;;;;;7.45;4.65;;;;;;;;;;5076378;28;20112;-75
2022/12/11 10:34:36;;;;;;;8.13;5.00;;;;;;;;;;5061899;28;20021;-75
2022/12/11 10:37:22;;;;;;;7.18;5.50;;;;;;;;;;5076269;28;20430;-75
2022/12/11 10:40:07;;;;;;;8.05;5.13;;;;;;;;;;5076029;28;20024;-74
2022/12/11 10:42:53;;;;;;;10.05;5.50;;;;;;;;;;5076267;28;20020;-75
2022/12/11 10:45:39;;;;;;;9.85;5.90;;;;;;;;;;5075987;28;20066;-76
2022/12/11 10:48:24;;;;;;;8.55;5.65;;;;;;;;;;5076231;28;20020;-74
2022/12/11 10:51:10;;;;;;;12.48;6.18;;;;;;;;;;5061670;28;20025;-75
2022/12/11 10:53:57;;;;;;;13.77;7.15;;;;;;;;;;5076560;28;20028;-75
2022/12/11 10:56:45;;;;;;;10.15;6.93;;;;;;;;;;5074676;28;20090;-75
2022/12/11 10:59:44;;;;;;;12.77;7.55;;;;;;;;;;5075159;28;20406;-75
2022/12/11 11:02:31;;;;;;;12.18;8.18;;;;;;;;;;5092346;28;20131;-74
2022/12/11 11:05:26;;;;;;;13.82;7.95;;;;;;;;;;5096196;28;20070;-77
2022/12/11 11:08:14;;;;;;;11.75;8.38;;;;;;;;;;5095538;28;20360;-76
2022/12/11 11:11:00;;;;;;;13.00;7.53;;;;;;;;;;5081731;28;20016;-74
2022/12/11 11:13:46;;;;;;;13.43;7.70;;;;;;;;;;5098113;28;20020;-79
2022/12/11 11:16:34;;;;;;;12.38;8.50;;;;;;;;;;5080478;28;20020;-79
2022/12/11 11:19:25;;;;;;;13.60;8.02;;;;;;;;;;5081353;28;20031;-79
2022/12/11 11:22:12;;;;;;;13.52;7.82;;;;;;;;;;5096070;28;20024;-79
2022/12/11 11:24:58;;;;;;;14.15;8.20;;;;;;;;;;5096181;28;20020;-78
2022/12/11 11:27:46;;;;;;;13.50;9.05;;;;;;;;;;5096590;28;20438;-75
2022/12/11 11:30:37;;;;;;;11.43;8.25;;;;;;;;;;5080921;28;20074;-75
2022/12/11 11:33:23;;;;;;;12.90;8.93;;;;;;;;;;5079970;28;20035;-74
2022/12/11 11:36:19;;;;;;;14.88;9.30;;;;;;;;;;5095892;28;20075;-75
2022/12/11 11:39:23;;;;;;;14.20;8.90;;;;;;;;;;5080479;28;20378;-76
2022/12/11 11:42:19;;;;;;;15.57;9.02;;;;;;;;;;5080727;28;20099;-75
2022/12/11 11:45:09;;;;;;;15.57;10.38;;;;;;;;;;5080748;28;20052;-76
2022/12/11 11:48:13;;;;;;;16.23;9.98;;;;;;;;;;5079820;28;20028;-75
2022/12/11 11:51:02;;;;;;;15.57;9.95;;;;;;;;;;5094676;28;20034;-79
2022/12/11 11:53:49;;;;;;;16.73;9.75;;;;;;;;;;5080324;28;20020;-75
2022/12/11 11:56:36;;;;;;;20.73;10.15;;;;;;;;;;5095093;28;20016;-75
2022/12/11 11:59:25;;;;;;;15.15;10.85;;;;;;;;;;5095183;28;20445;-77
2022/12/11 12:02:13;;;;;;;13.07;9.55;;;;;;;;;;5093723;28;20051;-74
2022/12/11 12:04:58;;;;;;;17.80;10.60;;;;;;;;;;5079785;28;20020;-76
2022/12/11 12:07:50;;;;;;;15.18;9.52;;;;;;;;;;5094590;28;20143;-76
2022/12/11 12:10:49;;;;;;;18.33;10.80;;;;;;;;;;5079807;28;20023;-75
2022/12/11 12:13:44;;;;;;;15.07;10.73;;;;;;;;;;5094328;28;20034;-76
2022/12/11 12:17:05;;;;;;;23.67;14.63;;;;;;;;;;5079284;28;20024;-74
2022/12/11 12:20:09;;;;;;;16.98;11.63;;;;;;;;;;4981068;28;20088;-76
2022/12/11 12:23:01;;;;;;;14.32;10.77;;;;;;;;;;5075105;28;20039;-75
2022/12/11 12:26:06;;;;;;;14.82;9.82;;;;;;;;;;5094850;28;20489;-78
2022/12/11 12:29:07;;;;;;;14.13;9.13;;;;;;;;;;5094612;28;20050;-76
2022/12/11 12:31:58;;;;;;;17.00;10.73;;;;;;;;;;5094791;28;20023;-76
2022/12/11 12:34:56;;;;;;;21.80;12.77;;;;;;;;;;5078896;28;20031;-75
2022/12/11 12:37:47;;;;;;;17.23;12.02;;;;;;;;;;5094151;28;20020;-75
2022/12/11 12:40:52;;;;;;;20.10;12.95;;;;;;;;;;5078954;28;20449;-78
2022/12/11 12:43:57;;;;;;;24.15;16.02;;;;;;;;;;5094303;28;20093;-77
2022/12/11 12:46:55;;;;;;;24.77;17.15;;;;;;;;;;5090749;28;20050;-76
2022/12/11 12:49:43;;;;;;;28.45;18.02;;;;;;;;;;5078549;28;20031;-75
2022/12/11 12:52:29;;;;;;;25.42;18.30;;;;;;;;;;5093283;28;20067;-75
2022/12/11 12:55:21;;;;;;;32.88;20.15;;;;;;;;;;5078730;28;20024;-75
2022/12/11 12:58:23;;;;;;;22.60;15.77;;;;;;;;;;5094129;28;20392;-76
2022/12/11 13:01:13;;;;;;;27.80;17.63;;;;;;;;;;5103818;28;20059;-76
2022/12/11 13:04:00;;;;;;;20.75;14.73;;;;;;;;;;5091155;28;20032;-75
2022/12/11 13:06:46;;;;;;;33.63;21.17;;;;;;;;;;5083233;28;20111;-75
2022/12/11 13:09:31;;;;;;;34.90;22.20;;;;;;;;;;5080898;28;20099;-74
2022/12/11 13:12:28;;;;;;;36.95;22.17;;;;;;;;;;5078915;28;20024;-74
2022/12/11 13:15:23;;;;;;;27.23;17.92;;;;;;;;;;5094046;28;20051;-76
2022/12/11 13:18:28;;;;;;;25.95;16.35;;;;;;;;;;5078996;28;20472;-76
2022/12/11 13:21:30;;;;;;;21.80;15.32;;;;;;;;;;5096785;28;20046;-75
2022/12/11 13:24:16;;;;;;;19.23;11.25;;;;;;;;;;5084072;28;20535;-75
2022/12/11 13:27:22;;;;;;;12.07;8.02;;;;;;;;;;5097240;28;20350;-75
2022/12/11 13:30:14;;;;;;;16.40;7.93;;;;;;;;;;5098021;28;20095;-76
2022/12/11 13:33:02;;;;;;;7.07;5.32;;;;;;;;;;5098618;28;20055;-75
2022/12/11 13:35:48;;;;;;;6.35;4.60;;;;;;;;;;5098183;28;20407;-75
2022/12/11 13:38:34;;;;;;;5.50;4.53;;;;;;;;;;5100593;28;20479;-75
2022/12/11 13:41:20;;;;;;;12.38;4.95;;;;;;;;;;5098803;28;20035;-74
2022/12/11 13:44:06;;;;;;;5.30;4.18;;;;;;;;;;5082931;28;20111;-74
2022/12/11 13:46:53;;;;;;;4.65;2.92;;;;;;;;;;5114473;28;20076;-75
2022/12/11 13:49:40;;;;;;;4.72;3.10;;;;;;;;;;5097209;28;20055;-75
2022/12/11 13:52:27;;;;;;;7.43;3.17;;;;;;;;;;5107044;28;20043;-75
2022/12/11 13:55:20;;;;;;;4.50;3.25;;;;;;;;;;5085173;28;20099;-74
2022/12/11 13:58:19;;;;;;;5.35;3.15;;;;;;;;;;5098399;28;20012;-75
2022/12/11 14:01:06;;;;;;;11.43;4.20;;;;;;;;;;5083148;28;20040;-75
2022/12/11 14:03:53;;;;;;;6.25;3.67;;;;;;;;;;5097228;28;20020;-75
2022/12/11 14:06:39;;;;;;;8.05;4.13;;;;;;;;;;5096934;28;20105;-74
2022/12/11 14:09:25;;;;;;;6.60;4.20;;;;;;;;;;5088456;28;20024;-75
2022/12/11 14:12:16;;;;;;;5.20;3.55;;;;;;;;;;5099047;28;20020;-74
2022/12/11 14:15:03;;;;;;;6.80;3.60;;;;;;;;;;5097906;28;20030;-73
2022/12/11 14:17:49;;;;;;;5.68;3.80;;;;;;;;;;5096834;28;20024;-74
2022/12/11 14:20:34;;;;;;;5.97;3.92;;;;;;;;;;5096692;28;20027;-74
2022/12/11 14:23:21;;;;;;;6.75;3.35;;;;;;;;;;5083381;28;20024;-74
2022/12/11 14:26:18;;;;;;;4.68;3.40;;;;;;;;;;5092780;28;20011;-72
2022/12/11 14:29:04;;;;;;;6.60;4.55;;;;;;;;;;5113741;28;20075;-73
2022/12/11 14:31:50;;;;;;;5.05;4.22;;;;;;;;;;5103933;28;20093;-74
2022/12/11 14:34:40;;;;;;;6.10;4.90;;;;;;;;;;5097539;28;20020;-74
2022/12/11 14:37:27;;;;;;;7.78;5.00;;;;;;;;;;5097339;28;20020;-74
2022/12/11 14:40:17;;;;;;;6.63;5.40;;;;;;;;;;5082494;28;20044;-75
2022/12/11 14:43:07;;;;;;;6.88;5.78;;;;;;;;;;5115421;28;20052;-74
2022/12/11 14:45:56;;;;;;;5.75;4.65;;;;;;;;;;5097623;28;20442;-75
2022/12/11 14:48:47;;;;;;;8.45;4.88;;;;;;;;;;5081710;28;20042;-75
2022/12/11 14:51:34;;;;;;;5.53;4.90;;;;;;;;;;5096246;28;20028;-74
2022/12/11 14:54:24;;;;;;;6.20;5.00;;;;;;;;;;5096361;28;20035;-75
2022/12/11 14:57:18;;;;;;;6.05;4.68;;;;;;;;;;5081668;28;20452;-75
2022/12/11 15:00:05;;;;;;;6.13;4.88;;;;;;;;;;5096100;28;20051;-74
2022/12/11 15:02:57;;;;;;;6.50;4.82;;;;;;;;;;5096709;28;20131;-74
2022/12/11 15:05:50;;;;;;;5.95;4.72;;;;;;;;;;5096275;28;20028;-73
2022/12/11 15:08:36;;;;;;;7.88;5.15;;;;;;;;;;5081681;28;20028;-75
2022/12/11 15:11:23;;;;;;;8.30;5.05;;;;;;;;;;5081480;28;20411;-74
2022/12/11 15:14:10;;;;;;;7.28;5.05;;;;;;;;;;5080770;28;20103;-74
2022/12/11 15:16:56;;;;;;;7.90;5.22;;;;;;;;;;5095490;28;20028;-74
2022/12/11 15:19:46;;;;;;;7.72;5.30;;;;;;;;;;5094994;28;20016;-74
2022/12/11 15:22:32;;;;;;;7.60;5.47;;;;;;;;;;5096061;28;20017;-75
2022/12/11 15:25:19;;;;;;;10.35;5.93;;;;;;;;;;5095540;28;20129;-74
2022/12/11 15:28:24;;;;;;;6.85;5.28;;;;;;;;;;5095587;28;20051;-74
2022/12/11 15:31:29;;;;;;;6.97;5.15;;;;;;;;;;5095257;28;20080;-74
2022/12/11 15:34:21;;;;;;;7.57;5.25;;;;;;;;;;5095176;28;20122;-74
2022/12/11 15:37:16;;;;;;;7.15;5.57;;;;;;;;;;5080612;28;20382;-75
2022/12/11 15:40:03;;;;;;;8.30;6.00;;;;;;;;;;5095252;28;20456;-74
2022/12/11 15:42:49;;;;;;;9.60;6.05;;;;;;;;;;5080441;28;20060;-74
2022/12/11 15:45:35;;;;;;;8.43;5.75;;;;;;;;;;5080240;28;20419;-73
2022/12/11 15:48:20;;;;;;;8.25;5.80;;;;;;;;;;5095200;28;20035;-74
2022/12/11 15:51:06;;;;;;;7.47;5.15;;;;;;;;;;5095103;28;20059;-74
2022/12/11 15:53:52;;;;;;;7.63;5.50;;;;;;;;;;5094838;28;20024;-74
2022/12/11 15:56:37;;;;;;;5.75;4.32;;;;;;;;;;5094936;28;20016;-76
2022/12/11 15:59:23;;;;;;;7.28;5.07;;;;;;;;;;5095017;28;20031;-74
2022/12/11 16:02:12;;;;;;;6.47;4.53;;;;;;;;;;5093794;28;20189;-75
2022/12/11 16:04:57;;;;;;;9.90;5.50;;;;;;;;;;5094415;28;20013;-74
2022/12/11 16:07:43;;;;;;;7.63;5.10;;;;;;;;;;5094711;28;20012;-74
2022/12/11 16:10:28;;;;;;;7.07;5.22;;;;;;;;;;5094405;28;20026;-75
2022/12/11 16:13:14;;;;;;;9.82;4.80;;;;;;;;;;5095046;28;20438;-75
2022/12/11 16:15:59;;;;;;;8.70;5.10;;;;;;;;;;5094772;28;20031;-76
2022/12/11 16:18:45;;;;;;;7.03;4.20;;;;;;;;;;5094235;28;20120;-74
2022/12/11 16:21:31;;;;;;;10.40;4.40;;;;;;;;;;5094442;28;20017;-78
2022/12/11 16:24:16;;;;;;;6.68;4.18;;;;;;;;;;5094692;28;20084;-81
2022/12/11 16:27:02;;;;;;;6.75;4.35;;;;;;;;;;5094787;28;20039;-81
2022/12/11 16:29:48;;;;;;;6.15;4.13;;;;;;;;;;5078541;28;20078;-75
2022/12/11 16:32:34;;;;;;;7.45;4.50;;;;;;;;;;5094069;28;20092;-77
2022/12/11 16:35:20;;;;;;;6.53;4.47;;;;;;;;;;5094384;28;20023;-77
2022/12/11 16:38:06;;;;;;;7.53;4.80;;;;;;;;;;5094593;28;20026;-76
2022/12/11 16:40:59;;;;;;;8.13;4.45;;;;;;;;;;5080117;28;20337;-76
2022/12/11 16:43:45;;;;;;;6.30;4.65;;;;;;;;;;5080217;28;20027;-76
2022/12/11 16:46:30;;;;;;;5.70;4.38;;;;;;;;;;5093960;28;20020;-75